createdAt,value
2022-08-16T00:02:34.754Z,14.43
2022-08-16T00:05:06.176Z,11.88
2022-08-16T00:07:35.764Z,10.82
2022-08-16T00:10:07.309Z,10.68
2022-08-16T00:12:41.802Z,10.48
2022-08-16T00:15:17.339Z,10.50
2022-08-16T00:17:56.838Z,9.05
2022-08-16T00:20:27.231Z,10.82
2022-08-16T00:22:56.385Z,12.38
2022-08-16T00:26:33.720Z,9.35
2022-08-16T00:28:16.769Z,9.48
2022-08-16T00:30:45.715Z,7.47
2022-08-16T00:33:16.143Z,8.73
2022-08-16T00:35:46.104Z,11.68
2022-08-16T00:38:40.833Z,8.77
2022-08-16T00:41:08.657Z,8.27
2022-08-16T00:43:43.725Z,11.27
2022-08-16T00:46:22.385Z,7.70
2022-08-16T00:49:05.494Z,10.35
2022-08-16T00:51:34.797Z,9.05
2022-08-16T00:54:07.893Z,9.07
2022-08-16T00:56:57.741Z,11.65
2022-08-16T00:59:34.308Z,5.95
2022-08-16T01:02:21.688Z,8.35
2022-08-16T01:05:04.627Z,9.90
2022-08-16T01:07:51.227Z,9.95
2022-08-16T01:10:31.863Z,7.60
2022-08-16T01:13:07.872Z,6.63
2022-08-16T01:15:43.386Z,8.45
2022-08-16T01:18:40.618Z,7.53
2022-08-16T01:21:16.784Z,9.13
2022-08-16T01:24:44.606Z,11.32
2022-08-16T01:27:08.756Z,14.43
2022-08-16T01:29:58.409Z,9.98
2022-08-16T01:32:33.426Z,8.10
2022-08-16T01:35:07.637Z,12.02
2022-08-16T01:37:43.109Z,8.02
2022-08-16T01:40:18.528Z,8.75
2022-08-16T01:42:49.782Z,9.10
2022-08-16T01:45:24.174Z,6.13
2022-08-16T01:48:19.608Z,8.90
2022-08-16T01:51:09.711Z,11.70
2022-08-16T01:53:42.714Z,15.38
2022-08-16T01:56:30.158Z,11.65
2022-08-16T01:59:02.790Z,8.30
2022-08-16T02:01:34.018Z,9.52
2022-08-16T02:04:10.970Z,10.93
2022-08-16T02:06:46.636Z,10.07
2022-08-16T02:11:57.751Z,12.27
2022-08-16T02:14:29.832Z,9.50
2022-08-16T02:17:03.422Z,6.95
2022-08-16T02:19:58.744Z,8.75
2022-08-16T02:22:36.786Z,9.95
2022-08-16T02:25:10.494Z,6.13
2022-08-16T02:27:42.761Z,11.32
2022-08-16T02:30:36.539Z,6.93
2022-08-16T02:33:07.574Z,9.30
2022-08-16T02:35:49.805Z,6.68
2022-08-16T02:38:26.392Z,7.40
2022-08-16T02:40:56.592Z,6.50
2022-08-16T02:43:29.172Z,5.97
2022-08-16T02:46:07.535Z,10.88
2022-08-16T02:48:39.693Z,12.65
2022-08-16T02:51:19.289Z,13.60
2022-08-16T02:53:53.417Z,11.82
2022-08-16T02:56:25.434Z,11.30
2022-08-16T02:59:03.558Z,12.00
2022-08-16T03:01:41.759Z,16.05
2022-08-16T03:04:51.945Z,15.90
2022-08-16T03:07:27.543Z,9.77
2022-08-16T03:10:00.234Z,12.18
2022-08-16T03:12:37.894Z,11.68
2022-08-16T03:15:22.966Z,12.00
2022-08-16T03:17:54.223Z,13.73
2022-08-16T03:20:32.434Z,8.95
2022-08-16T03:23:05.253Z,10.00
2022-08-16T03:25:44.331Z,11.05
2022-08-16T03:28:17.082Z,9.30
2022-08-16T03:30:49.061Z,8.60
2022-08-16T03:33:19.298Z,8.60
2022-08-16T03:36:30.349Z,9.25
2022-08-16T03:38:54.273Z,16.95
2022-08-16T03:41:29.477Z,9.23
2022-08-16T03:44:44.734Z,8.20
2022-08-16T03:47:10.385Z,15.70
2022-08-16T03:49:41.079Z,11.27
2022-08-16T03:52:13.596Z,10.45
2022-08-16T03:54:53.419Z,14.02
2022-08-16T03:57:31.817Z,13.40
2022-08-16T04:00:35.464Z,7.50
2022-08-16T04:03:08.530Z,11.07
2022-08-16T04:05:44.423Z,12.35
2022-08-16T04:08:23.036Z,12.20
2022-08-16T04:10:57.859Z,8.02
2022-08-16T04:14:00.625Z,10.90
2022-08-16T04:16:27.446Z,11.23
2022-08-16T04:19:05.625Z,13.02
2022-08-16T04:21:46.027Z,9.25
2022-08-16T04:24:18.315Z,9.98
2022-08-16T04:26:48.874Z,9.30
2022-08-16T04:29:24.509Z,6.32
2022-08-16T04:31:58.218Z,6.25
2022-08-16T04:34:37.287Z,6.28
2022-08-16T04:37:08.174Z,8.40
2022-08-16T04:39:47.437Z,6.72
2022-08-16T04:42:29.846Z,9.95
2022-08-16T04:45:05.628Z,7.32
2022-08-16T04:47:36.668Z,7.40
2022-08-16T04:50:17.980Z,6.30
2022-08-16T04:53:23.006Z,12.13
2022-08-16T04:55:55.950Z,8.40
2022-08-16T04:58:38.426Z,7.82
2022-08-16T05:01:15.242Z,7.68
2022-08-16T05:03:59.640Z,8.38
2022-08-16T05:06:44.666Z,9.57
2022-08-16T05:09:23.228Z,5.90
2022-08-16T05:11:57.370Z,7.53
2022-08-16T05:14:45.847Z,6.50
2022-08-16T05:17:25.877Z,7.32
2022-08-16T05:19:59.349Z,6.82
2022-08-16T05:22:39.853Z,5.88
2022-08-16T05:25:17.296Z,8.90
2022-08-16T05:27:52.845Z,6.18
2022-08-16T05:30:34.608Z,7.35
2022-08-16T05:33:16.333Z,5.38
2022-08-16T05:35:55.621Z,6.10
2022-08-16T05:38:49.596Z,7.68
2022-08-16T05:41:20.004Z,7.18
2022-08-16T05:43:52.468Z,6.57
2022-08-16T05:46:43.804Z,6.22
2022-08-16T05:49:22.344Z,6.80
2022-08-16T05:51:55.703Z,4.13
2022-08-16T05:54:28.559Z,9.65
2022-08-16T05:57:02.396Z,3.92
2022-08-16T05:59:33.536Z,3.38
2022-08-16T06:02:03.036Z,5.13
2022-08-16T06:04:37.954Z,5.57
2022-08-16T06:07:26.173Z,7.47
2022-08-16T06:10:09.780Z,7.25
2022-08-16T06:12:41.108Z,7.35
2022-08-16T06:15:14.938Z,6.93
2022-08-16T06:17:51.707Z,5.70
2022-08-16T06:20:35.488Z,3.42
2022-08-16T06:23:26.940Z,4.22
2022-08-16T06:26:07.673Z,12.80
2022-08-16T06:28:42.033Z,7.70
2022-08-16T06:31:24.725Z,3.53
2022-08-16T06:33:56.414Z,3.90
2022-08-16T06:36:26.790Z,6.88
2022-08-16T06:39:16.432Z,5.30
2022-08-16T06:41:59.632Z,11.48
2022-08-16T06:45:04.484Z,5.57
2022-08-16T06:47:53.633Z,5.53
2022-08-16T06:50:28.792Z,6.28
2022-08-16T06:53:08.737Z,4.72
2022-08-16T06:55:43.342Z,3.88
2022-08-16T06:58:21.904Z,4.53
2022-08-16T07:00:59.799Z,3.55
2022-08-16T07:03:32.671Z,3.08
2022-08-16T07:06:26.446Z,5.25
2022-08-16T07:08:59.090Z,5.32
2022-08-16T07:11:48.131Z,4.00
2022-08-16T07:14:31.356Z,8.00
2022-08-16T07:17:03.370Z,5.03
2022-08-16T07:20:02.707Z,3.25
2022-08-16T07:22:39.686Z,4.00
2022-08-16T07:25:20.652Z,6.00
2022-08-16T07:27:52.546Z,7.07
2022-08-16T07:30:39.906Z,5.35
2022-08-16T07:33:52.546Z,3.78
2022-08-16T07:36:22.216Z,8.05
2022-08-16T07:41:24.357Z,6.07
2022-08-16T07:44:01.210Z,4.00
2022-08-16T07:46:38.724Z,5.28
2022-08-16T07:49:35.082Z,3.78
2022-08-16T07:52:18.722Z,2.90
2022-08-16T07:54:55.397Z,5.40
2022-08-16T07:57:26.328Z,3.28
2022-08-16T08:00:00.682Z,4.28
2022-08-16T08:05:03.732Z,10.20
2022-08-16T08:07:32.867Z,2.78
2022-08-16T08:10:16.138Z,4.32
2022-08-16T08:13:02.306Z,5.80
2022-08-16T08:15:34.462Z,5.28
2022-08-16T08:18:29.808Z,5.28
2022-08-16T08:20:59.259Z,7.15
2022-08-16T08:23:37.065Z,7.20
2022-08-16T08:26:17.502Z,5.22
2022-08-16T08:28:49.771Z,5.93
2022-08-16T08:31:20.209Z,4.60
2022-08-16T08:33:56.676Z,4.72
2022-08-16T08:36:32.976Z,3.30
2022-08-16T08:39:12.576Z,5.55
2022-08-16T08:41:46.494Z,3.60
2022-08-16T08:44:27.812Z,6.35
2022-08-16T08:47:02.677Z,6.50
2022-08-16T08:49:46.863Z,5.72
2022-08-16T08:52:33.724Z,3.75
2022-08-16T08:55:10.648Z,7.05
2022-08-16T08:57:43.003Z,5.25
2022-08-16T09:00:26.850Z,3.88
2022-08-16T09:03:04.562Z,7.25
2022-08-16T09:05:42.978Z,5.40
2022-08-16T09:08:13.802Z,4.13
2022-08-16T09:11:02.035Z,4.57
2022-08-16T09:13:35.347Z,7.65
2022-08-16T09:16:05.633Z,8.50
2022-08-16T09:18:36.871Z,7.53
2022-08-16T09:21:09.793Z,5.97
2022-08-16T09:23:39.683Z,4.85
2022-08-16T09:26:45.399Z,5.57
2022-08-16T09:29:15.254Z,3.92
2022-08-16T09:31:53.296Z,6.15
2022-08-16T09:34:23.550Z,4.82
2022-08-16T09:36:58.187Z,6.60
2022-08-16T09:39:41.495Z,3.53
2022-08-16T09:42:11.900Z,5.22
2022-08-16T09:45:11.143Z,4.25
2022-08-16T09:47:57.119Z,4.70
2022-08-16T09:50:25.338Z,3.58
2022-08-16T09:52:56.017Z,8.60
2022-08-16T09:55:27.493Z,4.78
2022-08-16T09:58:00.298Z,3.33
2022-08-16T10:00:44.873Z,3.60
2022-08-16T10:03:14.525Z,6.22
2022-08-16T10:05:44.733Z,12.65
2022-08-16T10:08:26.158Z,4.15
2022-08-16T10:11:13.560Z,3.22
2022-08-16T10:13:44.304Z,5.07
2022-08-16T10:19:01.709Z,4.32
2022-08-16T10:21:36.208Z,5.15
2022-08-16T10:24:11.581Z,3.90
2022-08-16T10:27:19.945Z,4.20
2022-08-16T10:29:59.499Z,6.28
2022-08-16T10:32:33.036Z,3.50
2022-08-16T10:35:03.818Z,5.35
2022-08-16T10:37:36.231Z,5.28
2022-08-16T10:40:28.207Z,3.28
2022-08-16T10:43:01.279Z,3.28
2022-08-16T10:45:36.680Z,4.35
2022-08-16T10:48:28.166Z,5.45
2022-08-16T10:50:58.825Z,3.78
2022-08-16T10:53:33.094Z,6.88
2022-08-16T10:56:55.613Z,4.03
2022-08-16T10:59:29.650Z,3.45
2022-08-16T11:02:21.860Z,3.67
2022-08-16T11:10:20.040Z,4.18
2022-08-16T11:12:52.861Z,5.82
2022-08-16T11:15:22.491Z,4.10
2022-08-16T11:20:48.869Z,3.95
2022-08-16T11:23:18.707Z,8.30
2022-08-16T11:26:16.665Z,11.57
2022-08-16T11:31:29.208Z,3.33
2022-08-16T11:34:01.942Z,3.75
2022-08-16T11:36:31.575Z,7.13
2022-08-16T11:39:02.040Z,5.30
2022-08-16T11:41:33.461Z,4.03
2022-08-16T11:44:04.739Z,3.90
2022-08-16T11:46:45.410Z,10.27
2022-08-16T11:49:15.461Z,6.50
2022-08-16T11:51:45.526Z,5.03
2022-08-16T11:54:21.771Z,3.55
2022-08-16T11:56:56.597Z,8.60
2022-08-16T11:59:29.443Z,3.55
2022-08-16T12:02:00.223Z,4.55
2022-08-16T12:04:51.918Z,5.10
2022-08-16T12:07:23.825Z,6.28
2022-08-16T12:09:54.231Z,6.13
2022-08-16T12:12:24.674Z,4.75
2022-08-16T12:14:59.772Z,5.38
2022-08-16T12:17:32.212Z,3.88
2022-08-16T12:20:01.892Z,4.63
2022-08-16T12:22:36.590Z,6.32
2022-08-16T12:25:06.823Z,6.75
2022-08-16T12:27:39.300Z,8.10
2022-08-16T12:30:19.817Z,5.80
2022-08-16T12:32:57.690Z,5.07
2022-08-16T12:35:29.721Z,6.22
2022-08-16T12:38:00.635Z,5.32
2022-08-16T12:40:41.877Z,5.75
2022-08-16T12:43:14.508Z,3.25
2022-08-16T12:45:48.356Z,3.45
2022-08-16T12:48:37.360Z,5.00
2022-08-16T12:51:19.937Z,4.70
2022-08-16T12:53:55.865Z,5.43
2022-08-16T12:56:28.177Z,5.32
2022-08-16T12:58:59.505Z,26.98
2022-08-16T13:01:33.400Z,9.13
2022-08-16T13:04:12.375Z,5.47
2022-08-16T13:06:51.297Z,3.97
2022-08-16T13:09:26.419Z,8.73
2022-08-16T13:12:03.432Z,5.40
2022-08-16T13:14:38.066Z,4.63
2022-08-16T13:17:17.067Z,4.13
2022-08-16T13:20:08.725Z,5.22
2022-08-16T13:25:13.100Z,6.07
2022-08-16T13:28:01.399Z,5.30
2022-08-16T13:30:41.106Z,6.05
2022-08-16T13:33:17.500Z,5.82
2022-08-16T13:35:56.112Z,6.28
2022-08-16T13:38:37.463Z,7.20
2022-08-16T13:41:08.901Z,7.40
2022-08-16T13:43:39.709Z,4.47
2022-08-16T13:46:10.013Z,4.35
2022-08-16T13:48:44.256Z,5.35
2022-08-16T13:51:17.847Z,5.07
2022-08-16T13:53:49.672Z,6.88
2022-08-16T13:56:35.938Z,7.50
2022-08-16T13:59:20.027Z,4.60
2022-08-16T14:01:55.141Z,5.32
2022-08-16T14:04:29.156Z,5.25
2022-08-16T14:06:59.489Z,7.13
2022-08-16T14:09:30.155Z,4.70
2022-08-16T14:12:09.869Z,8.13
2022-08-16T14:14:54.548Z,10.40
2022-08-16T14:17:27.738Z,6.75
2022-08-16T14:19:59.762Z,9.93
2022-08-16T14:22:35.826Z,9.35
2022-08-16T14:25:16.378Z,10.02
2022-08-16T14:27:45.685Z,10.35
2022-08-16T14:30:17.360Z,13.15
2022-08-16T14:32:49.829Z,7.95
2022-08-16T14:35:29.378Z,5.45
2022-08-16T14:38:06.711Z,7.05
2022-08-16T14:40:35.942Z,7.80
2022-08-16T14:43:07.303Z,6.72
2022-08-16T14:45:37.218Z,7.13
2022-08-16T14:48:07.360Z,10.43
2022-08-16T14:50:38.069Z,7.88
2022-08-16T14:53:10.123Z,10.95
2022-08-16T14:55:41.123Z,8.05
2022-08-16T14:58:18.827Z,9.05
2022-08-16T15:00:50.633Z,8.65
2022-08-16T15:03:21.897Z,9.38
2022-08-16T15:05:54.129Z,10.15
2022-08-16T15:08:36.674Z,9.57
2022-08-16T15:11:07.777Z,12.23
2022-08-16T15:13:37.173Z,12.40
2022-08-16T15:16:07.926Z,14.93
2022-08-16T15:18:37.106Z,10.48
2022-08-16T15:21:10.155Z,13.93
2022-08-16T15:23:40.468Z,12.50
2022-08-16T15:26:18.552Z,12.27
2022-08-16T15:29:00.966Z,13.48
2022-08-16T15:31:30.656Z,11.55
2022-08-16T15:34:01.186Z,13.45
2022-08-16T15:36:31.772Z,13.93
2022-08-16T15:39:07.794Z,12.80
2022-08-16T15:42:05.616Z,13.93
2022-08-16T15:47:25.968Z,13.43
2022-08-16T15:49:56.192Z,14.25
2022-08-16T15:52:30.549Z,14.68
2022-08-16T15:55:07.560Z,14.95
2022-08-16T15:57:53.318Z,13.10
2022-08-16T16:00:22.686Z,13.82
2022-08-16T16:03:05.072Z,13.75
2022-08-16T16:05:39.173Z,12.60
2022-08-16T16:08:11.620Z,15.98
2022-08-16T16:10:54.484Z,14.60
2022-08-16T16:13:25.056Z,13.57
2022-08-16T16:15:56.379Z,17.27
2022-08-16T16:18:30.058Z,13.32
2022-08-16T16:21:02.730Z,15.68
2022-08-16T16:23:35.386Z,15.60
2022-08-16T16:26:10.828Z,12.25
2022-08-16T16:29:06.497Z,13.85
2022-08-16T16:31:32.203Z,11.60
2022-08-16T16:34:05.500Z,18.17
2022-08-16T16:36:35.845Z,16.65
2022-08-16T16:39:08.918Z,19.08
2022-08-16T16:41:40.238Z,16.67
2022-08-16T16:44:11.224Z,17.50
2022-08-16T16:46:56.609Z,15.75
2022-08-16T16:49:27.002Z,17.58
2022-08-16T16:52:06.505Z,23.55
2022-08-16T16:54:37.928Z,19.33
2022-08-16T16:57:26.962Z,16.98
2022-08-16T16:59:56.526Z,16.23
2022-08-16T17:02:41.173Z,14.57
2022-08-16T17:05:14.829Z,16.70
2022-08-16T17:07:43.795Z,16.83
2022-08-16T17:10:14.493Z,21.77
2022-08-16T17:13:05.350Z,16.42
2022-08-16T17:15:36.441Z,19.25
2022-08-16T17:19:15.002Z,17.38
2022-08-16T17:20:54.776Z,17.48
2022-08-16T17:23:59.651Z,20.42
2022-08-16T17:26:15.380Z,19.35
2022-08-16T17:28:58.629Z,16.33
2022-08-16T17:31:38.291Z,19.20
2022-08-16T17:34:28.559Z,20.73
2022-08-16T17:36:59.709Z,18.13
2022-08-16T17:39:29.993Z,19.88
2022-08-16T17:42:02.214Z,16.50
2022-08-16T17:44:31.257Z,16.50
2022-08-16T17:47:00.204Z,24.42
2022-08-16T17:49:29.144Z,19.60
2022-08-16T17:51:58.787Z,20.98
2022-08-16T17:54:30.787Z,21.80
2022-08-16T17:57:02.235Z,19.13
2022-08-16T17:59:31.902Z,23.38
2022-08-16T18:02:42.889Z,24.38
2022-08-16T18:04:56.843Z,21.63
2022-08-16T18:07:26.312Z,24.10
2022-08-16T18:09:55.573Z,23.50
2022-08-16T18:12:50.702Z,24.83
2022-08-16T18:15:18.327Z,25.05
2022-08-16T18:17:48.597Z,19.25
2022-08-16T18:20:31.566Z,23.73
2022-08-16T18:23:07.097Z,21.50
2022-08-16T18:25:37.025Z,22.10
2022-08-16T18:28:07.968Z,20.27
2022-08-16T18:30:37.712Z,20.85
2022-08-16T18:33:09.934Z,19.65
2022-08-16T18:35:39.517Z,22.98
2022-08-16T18:38:08.860Z,18.70
2022-08-16T18:40:38.092Z,20.25
2022-08-16T18:43:11.963Z,23.25
2022-08-16T18:45:43.319Z,25.10
2022-08-16T18:48:14.702Z,19.02
2022-08-16T18:51:04.561Z,16.88
2022-08-16T18:53:36.654Z,19.67
2022-08-16T18:56:07.720Z,24.83
2022-08-16T18:58:39.383Z,27.42
2022-08-16T19:01:08.729Z,18.30
2022-08-16T19:03:38.167Z,20.67
2022-08-16T19:06:11.990Z,25.10
2022-08-16T19:08:44.567Z,22.67
2022-08-16T19:11:19.055Z,22.45
2022-08-16T19:13:50.112Z,22.02
2022-08-16T19:16:19.614Z,19.75
2022-08-16T19:18:51.463Z,21.85
2022-08-16T19:21:20.676Z,18.27
2022-08-16T19:23:50.147Z,26.40
2022-08-16T19:26:24.781Z,20.08
2022-08-16T19:28:59.869Z,21.73
2022-08-16T19:31:35.445Z,21.52
2022-08-16T19:34:05.973Z,19.80
2022-08-16T19:36:37.448Z,18.80
2022-08-16T19:39:09.271Z,19.08
2022-08-16T19:41:40.517Z,19.63
2022-08-16T19:44:11.794Z,19.20
2022-08-16T19:46:43.614Z,20.17
2022-08-16T19:49:16.014Z,20.85
2022-08-16T19:51:45.889Z,18.42
2022-08-16T19:54:15.043Z,18.63
2022-08-16T19:56:44.076Z,21.35
2022-08-16T19:59:19.471Z,24.73
2022-08-16T20:01:52.443Z,18.98
2022-08-16T20:04:23.083Z,20.17
2022-08-16T20:06:52.850Z,16.80
2022-08-16T20:09:22.350Z,19.95
2022-08-16T20:11:53.306Z,20.52
2022-08-16T20:14:26.436Z,21.35
2022-08-16T20:16:57.785Z,18.90
2022-08-16T20:19:28.573Z,18.75
2022-08-16T20:22:02.013Z,18.60
2022-08-16T20:24:35.754Z,19.92
2022-08-16T20:27:07.655Z,21.92
2022-08-16T20:29:40.546Z,18.80
2022-08-16T20:32:12.979Z,18.45
2022-08-16T20:34:42.722Z,18.00
2022-08-16T20:37:12.994Z,16.63
2022-08-16T20:39:44.350Z,16.95
2022-08-16T20:42:15.293Z,17.70
2022-08-16T20:44:45.974Z,19.33
2022-08-16T20:47:15.903Z,15.02
2022-08-16T20:49:44.973Z,23.13
2022-08-16T20:52:15.983Z,18.50
2022-08-16T20:54:46.709Z,19.52
2022-08-16T20:57:17.713Z,15.57
2022-08-16T20:59:50.326Z,16.17
2022-08-16T21:02:25.276Z,18.63
2022-08-16T21:07:23.289Z,20.02
2022-08-16T21:09:52.283Z,15.52
2022-08-16T21:12:21.206Z,15.10
2022-08-16T21:14:51.832Z,12.80
2022-08-16T21:17:20.984Z,20.58
2022-08-16T21:19:49.932Z,13.25
2022-08-16T21:22:22.121Z,20.50
2022-08-16T21:24:53.809Z,13.88
2022-08-16T21:27:23.665Z,14.77
2022-08-16T21:29:55.774Z,12.98
2022-08-16T21:32:35.454Z,15.07
2022-08-16T21:35:09.352Z,15.63
2022-08-16T21:37:38.656Z,14.60
2022-08-16T21:40:09.849Z,12.30
2022-08-16T21:42:42.013Z,13.45
2022-08-16T21:45:14.851Z,13.73
2022-08-16T21:47:44.734Z,15.10
2022-08-16T21:50:15.431Z,11.98
2022-08-16T21:52:44.371Z,12.05
2022-08-16T21:55:13.508Z,11.27
2022-08-16T21:57:42.577Z,12.65
2022-08-16T22:00:15.072Z,13.30
2022-08-16T22:02:47.884Z,11.02
2022-08-16T22:05:19.568Z,12.40
2022-08-16T22:07:48.580Z,12.75
2022-08-16T22:11:06.113Z,10.95
2022-08-16T22:13:17.882Z,9.48
2022-08-16T22:15:49.424Z,12.98
2022-08-16T22:18:19.177Z,12.80
2022-08-16T22:20:48.863Z,10.27
2022-08-16T22:23:22.070Z,11.57
2022-08-16T22:25:52.881Z,11.88
2022-08-16T22:28:23.164Z,9.85
2022-08-16T22:30:53.993Z,12.45
2022-08-16T22:33:25.591Z,12.30
2022-08-16T22:36:00.162Z,13.40
2022-08-16T22:38:54.098Z,10.35
2022-08-16T22:41:19.032Z,14.95
2022-08-16T22:43:51.153Z,13.35
2022-08-16T22:46:21.590Z,13.15
2022-08-16T22:48:51.235Z,11.90
2022-08-16T22:51:21.520Z,15.45
2022-08-16T22:53:50.743Z,10.70
2022-08-16T22:56:19.836Z,12.50
2022-08-16T22:58:49.213Z,16.50
2022-08-16T23:01:20.148Z,14.85
2022-08-16T23:03:50.907Z,14.10
2022-08-16T23:06:19.853Z,16.80
2022-08-16T23:08:48.774Z,21.88
2022-08-16T23:11:21.312Z,17.95
2022-08-16T23:13:53.756Z,14.32
2022-08-16T23:16:33.197Z,14.50
2022-08-16T23:19:07.570Z,11.73
2022-08-16T23:21:38.062Z,14.40
2022-08-16T23:24:08.204Z,12.50
2022-08-16T23:26:45.798Z,14.02
2022-08-16T23:29:24.715Z,17.42
2022-08-16T23:31:57.987Z,14.27
2022-08-16T23:34:29.647Z,15.57
2022-08-16T23:36:58.922Z,13.35
2022-08-16T23:39:28.355Z,14.68
2022-08-16T23:41:57.369Z,14.57
2022-08-16T23:44:55.214Z,14.00
2022-08-16T23:47:15.345Z,17.15
2022-08-16T23:50:00.428Z,23.42
2022-08-16T23:52:42.264Z,11.73
2022-08-16T23:55:21.978Z,14.18
2022-08-16T23:57:52.090Z,14.15
